sensor_id;sensor_type;location;lat;lon;timestamp;P1;durP1;ratioP1;P2;durP2;ratioP2
16640;SDS011;8434;47.990;7.880;2023-04-29T00:02:16;4.20;;;1.93;;
16640;SDS011;8434;47.990;7.880;2023-04-29T00:05:01;5.50;;;2.17;;
16640;SDS011;8434;47.990;7.880;2023-04-29T00:07:48;7.87;;;2.27;;
16640;SDS011;8434;47.990;7.880;2023-04-29T00:10:35;3.47;;;2.40;;
16640;SDS011;8434;47.990;7.880;2023-04-29T00:13:20;3.30;;;2.40;;
16640;SDS011;8434;47.990;7.880;2023-04-29T00:16:06;2.13;;;1.97;;
16640;SDS011;8434;47.990;7.880;2023-04-29T00:18:53;2.73;;;2.00;;
16640;SDS011;8434;47.990;7.880;2023-04-29T00:21:38;2.30;;;1.73;;
16640;SDS011;8434;47.990;7.880;2023-04-29T00:24:24;6.90;;;1.80;;
16640;SDS011;8434;47.990;7.880;2023-04-29T00:27:11;2.27;;;1.80;;
16640;SDS011;8434;47.990;7.880;2023-04-29T00:29:56;3.23;;;1.57;;
16640;SDS011;8434;47.990;7.880;2023-04-29T00:32:42;3.30;;;2.03;;
16640;SDS011;8434;47.990;7.880;2023-04-29T00:35:27;5.60;;;2.03;;
16640;SDS011;8434;47.990;7.880;2023-04-29T00:38:12;2.37;;;1.80;;
16640;SDS011;8434;47.990;7.880;2023-04-29T00:40:58;5.17;;;2.00;;
16640;SDS011;8434;47.990;7.880;2023-04-29T00:43:45;6.17;;;2.10;;
16640;SDS011;8434;47.990;7.880;2023-04-29T00:46:30;2.97;;;1.90;;
16640;SDS011;8434;47.990;7.880;2023-04-29T00:49:16;3.93;;;2.30;;
16640;SDS011;8434;47.990;7.880;2023-04-29T00:52:02;3.13;;;2.07;;
16640;SDS011;8434;47.990;7.880;2023-04-29T00:54:47;5.67;;;2.23;;
16640;SDS011;8434;47.990;7.880;2023-04-29T00:57:33;4.27;;;1.90;;
16640;SDS011;8434;47.990;7.880;2023-04-29T01:00:20;4.10;;;2.40;;
16640;SDS011;8434;47.990;7.880;2023-04-29T01:03:08;3.17;;;2.27;;
16640;SDS011;8434;47.990;7.880;2023-04-29T01:05:56;3.90;;;2.00;;
16640;SDS011;8434;47.990;7.880;2023-04-29T01:08:47;3.70;;;2.20;;
16640;SDS011;8434;47.990;7.880;2023-04-29T01:11:38;2.50;;;1.90;;
16640;SDS011;8434;47.990;7.880;2023-04-29T01:14:27;2.73;;;2.50;;
16640;SDS011;8434;47.990;7.880;2023-04-29T01:17:16;4.13;;;2.57;;
16640;SDS011;8434;47.990;7.880;2023-04-29T01:20:02;5.63;;;2.50;;
16640;SDS011;8434;47.990;7.880;2023-04-29T01:22:48;4.87;;;2.30;;
16640;SDS011;8434;47.990;7.880;2023-04-29T01:25:35;5.27;;;2.00;;
16640;SDS011;8434;47.990;7.880;2023-04-29T01:28:38;4.20;;;2.10;;
16640;SDS011;8434;47.990;7.880;2023-04-29T01:31:26;3.40;;;2.03;;
16640;SDS011;8434;47.990;7.880;2023-04-29T01:34:15;3.97;;;2.17;;
16640;SDS011;8434;47.990;7.880;2023-04-29T01:37:06;3.40;;;2.43;;
16640;SDS011;8434;47.990;7.880;2023-04-29T01:39:59;6.10;;;2.00;;
16640;SDS011;8434;47.990;7.880;2023-04-29T01:42:54;5.37;;;1.77;;
16640;SDS011;8434;47.990;7.880;2023-04-29T01:45:40;3.50;;;1.77;;
16640;SDS011;8434;47.990;7.880;2023-04-29T01:48:27;1.50;;;1.40;;
16640;SDS011;8434;47.990;7.880;2023-04-29T01:51:12;2.30;;;1.70;;
16640;SDS011;8434;47.990;7.880;2023-04-29T01:53:58;2.33;;;1.33;;
16640;SDS011;8434;47.990;7.880;2023-04-29T01:56:44;5.77;;;1.70;;
16640;SDS011;8434;47.990;7.880;2023-04-29T01:59:40;2.63;;;1.70;;
16640;SDS011;8434;47.990;7.880;2023-04-29T02:02:50;3.53;;;2.10;;
16640;SDS011;8434;47.990;7.880;2023-04-29T02:05:47;2.23;;;1.77;;
16640;SDS011;8434;47.990;7.880;2023-04-29T02:08:34;3.40;;;1.87;;
16640;SDS011;8434;47.990;7.880;2023-04-29T02:11:19;4.93;;;2.10;;
16640;SDS011;8434;47.990;7.880;2023-04-29T02:14:04;2.00;;;1.80;;
16640;SDS011;8434;47.990;7.880;2023-04-29T02:16:51;2.20;;;2.00;;
16640;SDS011;8434;47.990;7.880;2023-04-29T02:19:37;2.87;;;1.90;;
16640;SDS011;8434;47.990;7.880;2023-04-29T02:22:22;5.80;;;2.23;;
16640;SDS011;8434;47.990;7.880;2023-04-29T02:25:08;2.37;;;1.77;;
16640;SDS011;8434;47.990;7.880;2023-04-29T02:27:54;6.30;;;2.23;;
16640;SDS011;8434;47.990;7.880;2023-04-29T02:30:39;3.07;;;1.80;;
16640;SDS011;8434;47.990;7.880;2023-04-29T02:33:26;4.33;;;1.60;;
16640;SDS011;8434;47.990;7.880;2023-04-29T02:36:12;5.10;;;1.80;;
16640;SDS011;8434;47.990;7.880;2023-04-29T02:38:57;2.67;;;1.93;;
16640;SDS011;8434;47.990;7.880;2023-04-29T02:41:43;2.63;;;2.10;;
16640;SDS011;8434;47.990;7.880;2023-04-29T02:44:28;3.63;;;1.83;;
16640;SDS011;8434;47.990;7.880;2023-04-29T02:47:14;6.57;;;2.07;;
16640;SDS011;8434;47.990;7.880;2023-04-29T02:50:01;2.13;;;1.70;;
16640;SDS011;8434;47.990;7.880;2023-04-29T02:52:48;2.10;;;1.90;;
16640;SDS011;8434;47.990;7.880;2023-04-29T02:55:34;2.27;;;1.87;;
16640;SDS011;8434;47.990;7.880;2023-04-29T02:58:26;6.03;;;2.43;;
16640;SDS011;8434;47.990;7.880;2023-04-29T03:01:11;3.77;;;2.27;;
16640;SDS011;8434;47.990;7.880;2023-04-29T03:03:57;3.03;;;2.63;;
16640;SDS011;8434;47.990;7.880;2023-04-29T03:06:44;3.33;;;2.00;;
16640;SDS011;8434;47.990;7.880;2023-04-29T03:09:29;2.80;;;2.00;;
16640;SDS011;8434;47.990;7.880;2023-04-29T03:12:14;2.97;;;2.43;;
16640;SDS011;8434;47.990;7.880;2023-04-29T03:15:01;4.47;;;1.90;;
16640;SDS011;8434;47.990;7.880;2023-04-29T03:17:46;2.70;;;1.93;;
16640;SDS011;8434;47.990;7.880;2023-04-29T03:20:32;2.67;;;1.90;;
16640;SDS011;8434;47.990;7.880;2023-04-29T03:23:21;2.97;;;1.90;;
16640;SDS011;8434;47.990;7.880;2023-04-29T03:26:06;3.20;;;2.00;;
16640;SDS011;8434;47.990;7.880;2023-04-29T03:28:52;3.60;;;1.97;;
16640;SDS011;8434;47.990;7.880;2023-04-29T03:31:37;3.33;;;1.67;;
16640;SDS011;8434;47.990;7.880;2023-04-29T03:34:23;4.80;;;2.37;;
16640;SDS011;8434;47.990;7.880;2023-04-29T03:37:23;2.30;;;2.10;;
16640;SDS011;8434;47.990;7.880;2023-04-29T03:40:17;4.07;;;1.93;;
16640;SDS011;8434;47.990;7.880;2023-04-29T03:43:02;2.83;;;1.90;;
16640;SDS011;8434;47.990;7.880;2023-04-29T03:45:48;4.80;;;2.10;;
16640;SDS011;8434;47.990;7.880;2023-04-29T03:48:37;4.13;;;2.00;;
16640;SDS011;8434;47.990;7.880;2023-04-29T03:51:22;3.57;;;1.90;;
16640;SDS011;8434;47.990;7.880;2023-04-29T03:54:11;2.93;;;1.70;;
16640;SDS011;8434;47.990;7.880;2023-04-29T03:56:58;3.17;;;1.80;;
16640;SDS011;8434;47.990;7.880;2023-04-29T03:59:45;4.97;;;1.90;;
16640;SDS011;8434;47.990;7.880;2023-04-29T04:02:33;2.73;;;1.50;;
16640;SDS011;8434;47.990;7.880;2023-04-29T04:05:19;7.60;;;1.77;;
16640;SDS011;8434;47.990;7.880;2023-04-29T04:08:11;2.70;;;1.73;;
16640;SDS011;8434;47.990;7.880;2023-04-29T04:11:08;3.37;;;2.10;;
16640;SDS011;8434;47.990;7.880;2023-04-29T04:14:00;3.07;;;2.00;;
16640;SDS011;8434;47.990;7.880;2023-04-29T04:16:46;3.20;;;1.97;;
16640;SDS011;8434;47.990;7.880;2023-04-29T04:19:34;3.70;;;2.13;;
16640;SDS011;8434;47.990;7.880;2023-04-29T04:22:19;3.33;;;2.17;;
16640;SDS011;8434;47.990;7.880;2023-04-29T04:25:20;2.80;;;2.30;;
16640;SDS011;8434;47.990;7.880;2023-04-29T04:28:06;4.77;;;2.03;;
16640;SDS011;8434;47.990;7.880;2023-04-29T04:31:16;3.53;;;2.17;;
16640;SDS011;8434;47.990;7.880;2023-04-29T04:34:02;3.43;;;2.00;;
16640;SDS011;8434;47.990;7.880;2023-04-29T04:36:50;2.93;;;2.27;;
16640;SDS011;8434;47.990;7.880;2023-04-29T04:39:35;4.07;;;1.90;;
16640;SDS011;8434;47.990;7.880;2023-04-29T04:42:21;4.30;;;2.00;;
16640;SDS011;8434;47.990;7.880;2023-04-29T04:45:08;4.53;;;2.10;;
16640;SDS011;8434;47.990;7.880;2023-04-29T04:48:09;4.60;;;2.20;;
16640;SDS011;8434;47.990;7.880;2023-04-29T04:50:56;3.17;;;2.17;;
16640;SDS011;8434;47.990;7.880;2023-04-29T04:53:41;2.57;;;2.20;;
16640;SDS011;8434;47.990;7.880;2023-04-29T04:56:35;4.17;;;2.20;;
16640;SDS011;8434;47.990;7.880;2023-04-29T04:59:22;3.47;;;2.63;;
16640;SDS011;8434;47.990;7.880;2023-04-29T05:02:08;3.40;;;1.90;;
16640;SDS011;8434;47.990;7.880;2023-04-29T05:04:55;5.90;;;2.07;;
16640;SDS011;8434;47.990;7.880;2023-04-29T05:07:44;7.27;;;2.30;;
16640;SDS011;8434;47.990;7.880;2023-04-29T05:10:29;2.03;;;1.50;;
16640;SDS011;8434;47.990;7.880;2023-04-29T05:13:18;6.03;;;2.73;;
16640;SDS011;8434;47.990;7.880;2023-04-29T05:16:04;3.50;;;2.03;;
16640;SDS011;8434;47.990;7.880;2023-04-29T05:18:50;2.97;;;2.50;;
16640;SDS011;8434;47.990;7.880;2023-04-29T05:21:37;5.90;;;2.17;;
16640;SDS011;8434;47.990;7.880;2023-04-29T05:24:23;2.03;;;1.93;;
16640;SDS011;8434;47.990;7.880;2023-04-29T05:27:09;5.33;;;1.93;;
16640;SDS011;8434;47.990;7.880;2023-04-29T05:29:54;3.27;;;2.40;;
16640;SDS011;8434;47.990;7.880;2023-04-29T05:32:41;3.50;;;2.20;;
16640;SDS011;8434;47.990;7.880;2023-04-29T05:35:31;3.97;;;2.37;;
16640;SDS011;8434;47.990;7.880;2023-04-29T05:38:18;2.77;;;2.50;;
16640;SDS011;8434;47.990;7.880;2023-04-29T05:41:15;4.47;;;2.37;;
16640;SDS011;8434;47.990;7.880;2023-04-29T05:44:20;2.87;;;2.60;;
16640;SDS011;8434;47.990;7.880;2023-04-29T05:47:06;4.07;;;3.00;;
16640;SDS011;8434;47.990;7.880;2023-04-29T05:49:51;6.37;;;3.20;;
16640;SDS011;8434;47.990;7.880;2023-04-29T05:52:37;4.03;;;2.93;;
16640;SDS011;8434;47.990;7.880;2023-04-29T05:55:23;4.13;;;2.80;;
16640;SDS011;8434;47.990;7.880;2023-04-29T05:58:09;3.63;;;3.00;;
16640;SDS011;8434;47.990;7.880;2023-04-29T06:00:54;3.37;;;2.90;;
16640;SDS011;8434;47.990;7.880;2023-04-29T06:03:42;2.40;;;2.20;;
16640;SDS011;8434;47.990;7.880;2023-04-29T06:06:48;2.67;;;2.40;;
16640;SDS011;8434;47.990;7.880;2023-04-29T06:09:36;2.40;;;2.20;;
16640;SDS011;8434;47.990;7.880;2023-04-29T06:12:23;3.57;;;2.20;;
16640;SDS011;8434;47.990;7.880;2023-04-29T06:15:09;3.30;;;3.00;;
16640;SDS011;8434;47.990;7.880;2023-04-29T06:17:55;2.33;;;1.83;;
16640;SDS011;8434;47.990;7.880;2023-04-29T06:20:40;5.00;;;2.37;;
16640;SDS011;8434;47.990;7.880;2023-04-29T06:23:26;2.70;;;2.20;;
16640;SDS011;8434;47.990;7.880;2023-04-29T06:26:11;9.03;;;2.03;;
16640;SDS011;8434;47.990;7.880;2023-04-29T06:28:58;1.83;;;1.73;;
16640;SDS011;8434;47.990;7.880;2023-04-29T06:31:44;1.58;;;1.45;;
16640;SDS011;8434;47.990;7.880;2023-04-29T06:34:29;2.55;;;2.15;;
16640;SDS011;8434;47.990;7.880;2023-04-29T06:37:33;2.15;;;1.88;;
16640;SDS011;8434;47.990;7.880;2023-04-29T06:40:34;2.63;;;1.67;;
16640;SDS011;8434;47.990;7.880;2023-04-29T06:43:27;2.85;;;1.20;;
16640;SDS011;8434;47.990;7.880;2023-04-29T06:46:33;2.78;;;1.40;;
16640;SDS011;8434;47.990;7.880;2023-04-29T06:49:22;1.50;;;1.40;;
16640;SDS011;8434;47.990;7.880;2023-04-29T06:52:07;1.42;;;1.10;;
16640;SDS011;8434;47.990;7.880;2023-04-29T06:54:53;0.93;;;0.93;;
16640;SDS011;8434;47.990;7.880;2023-04-29T06:57:38;1.10;;;1.00;;
16640;SDS011;8434;47.990;7.880;2023-04-29T07:00:23;2.88;;;1.10;;
16640;SDS011;8434;47.990;7.880;2023-04-29T07:03:14;1.95;;;1.30;;
16640;SDS011;8434;47.990;7.880;2023-04-29T07:05:59;1.05;;;0.95;;
16640;SDS011;8434;47.990;7.880;2023-04-29T07:08:45;2.80;;;1.60;;
16640;SDS011;8434;47.990;7.880;2023-04-29T07:11:32;1.30;;;1.20;;
16640;SDS011;8434;47.990;7.880;2023-04-29T07:14:17;3.78;;;1.20;;
16640;SDS011;8434;47.990;7.880;2023-04-29T07:17:05;2.90;;;1.10;;
16640;SDS011;8434;47.990;7.880;2023-04-29T07:19:52;3.20;;;1.33;;
16640;SDS011;8434;47.990;7.880;2023-04-29T07:22:38;1.38;;;1.27;;
16640;SDS011;8434;47.990;7.880;2023-04-29T07:25:24;2.20;;;1.38;;
16640;SDS011;8434;47.990;7.880;2023-04-29T07:28:10;1.88;;;1.40;;
16640;SDS011;8434;47.990;7.880;2023-04-29T07:30:55;1.95;;;1.35;;
16640;SDS011;8434;47.990;7.880;2023-04-29T07:33:40;2.28;;;1.42;;
16640;SDS011;8434;47.990;7.880;2023-04-29T07:36:28;3.85;;;1.40;;
16640;SDS011;8434;47.990;7.880;2023-04-29T07:39:15;1.38;;;1.25;;
16640;SDS011;8434;47.990;7.880;2023-04-29T07:42:05;1.40;;;1.23;;
16640;SDS011;8434;47.990;7.880;2023-04-29T07:44:50;1.85;;;1.23;;
16640;SDS011;8434;47.990;7.880;2023-04-29T07:47:37;3.13;;;1.25;;
16640;SDS011;8434;47.990;7.880;2023-04-29T07:50:22;3.42;;;1.60;;
16640;SDS011;8434;47.990;7.880;2023-04-29T07:53:10;1.40;;;1.30;;
16640;SDS011;8434;47.990;7.880;2023-04-29T07:55:56;1.30;;;1.20;;
16640;SDS011;8434;47.990;7.880;2023-04-29T07:58:42;1.50;;;1.40;;
16640;SDS011;8434;47.990;7.880;2023-04-29T08:01:28;2.10;;;1.90;;
16640;SDS011;8434;47.990;7.880;2023-04-29T08:04:13;2.17;;;1.50;;
16640;SDS011;8434;47.990;7.880;2023-04-29T08:07:05;1.70;;;1.60;;
16640;SDS011;8434;47.990;7.880;2023-04-29T08:09:54;3.30;;;1.67;;
16640;SDS011;8434;47.990;7.880;2023-04-29T08:12:40;2.10;;;1.77;;
16640;SDS011;8434;47.990;7.880;2023-04-29T08:15:26;2.30;;;1.60;;
16640;SDS011;8434;47.990;7.880;2023-04-29T08:18:11;3.53;;;1.80;;
16640;SDS011;8434;47.990;7.880;2023-04-29T08:20:56;2.40;;;1.58;;
16640;SDS011;8434;47.990;7.880;2023-04-29T08:23:42;1.83;;;1.45;;
16640;SDS011;8434;47.990;7.880;2023-04-29T08:26:29;1.60;;;1.50;;
16640;SDS011;8434;47.990;7.880;2023-04-29T08:29:14;2.42;;;1.50;;
16640;SDS011;8434;47.990;7.880;2023-04-29T08:32:00;2.20;;;1.50;;
16640;SDS011;8434;47.990;7.880;2023-04-29T08:34:45;3.47;;;1.85;;
16640;SDS011;8434;47.990;7.880;2023-04-29T08:37:30;2.58;;;1.50;;
16640;SDS011;8434;47.990;7.880;2023-04-29T08:40:16;1.38;;;1.27;;
16640;SDS011;8434;47.990;7.880;2023-04-29T08:43:03;2.50;;;1.20;;
16640;SDS011;8434;47.990;7.880;2023-04-29T08:45:48;2.95;;;1.40;;
16640;SDS011;8434;47.990;7.880;2023-04-29T08:48:34;2.53;;;1.60;;
16640;SDS011;8434;47.990;7.880;2023-04-29T08:51:20;2.50;;;1.20;;
16640;SDS011;8434;47.990;7.880;2023-04-29T08:54:05;3.65;;;2.13;;
16640;SDS011;8434;47.990;7.880;2023-04-29T08:56:51;1.90;;;1.80;;
16640;SDS011;8434;47.990;7.880;2023-04-29T08:59:38;2.00;;;1.60;;
16640;SDS011;8434;47.990;7.880;2023-04-29T09:02:23;1.20;;;1.10;;
16640;SDS011;8434;47.990;7.880;2023-04-29T09:05:10;2.63;;;1.20;;
16640;SDS011;8434;47.990;7.880;2023-04-29T09:07:55;2.83;;;1.50;;
16640;SDS011;8434;47.990;7.880;2023-04-29T09:10:42;1.73;;;1.20;;
16640;SDS011;8434;47.990;7.880;2023-04-29T09:13:28;1.60;;;1.45;;
16640;SDS011;8434;47.990;7.880;2023-04-29T09:16:15;3.25;;;2.17;;
16640;SDS011;8434;47.990;7.880;2023-04-29T09:19:01;2.20;;;1.73;;
16640;SDS011;8434;47.990;7.880;2023-04-29T09:21:47;2.47;;;1.73;;
16640;SDS011;8434;47.990;7.880;2023-04-29T09:24:38;3.30;;;2.10;;
16640;SDS011;8434;47.990;7.880;2023-04-29T09:27:26;2.87;;;2.43;;
16640;SDS011;8434;47.990;7.880;2023-04-29T09:30:12;1.70;;;1.60;;
16640;SDS011;8434;47.990;7.880;2023-04-29T09:33:04;3.73;;;2.23;;
16640;SDS011;8434;47.990;7.880;2023-04-29T09:35:50;3.67;;;2.20;;
16640;SDS011;8434;47.990;7.880;2023-04-29T09:38:35;5.00;;;2.03;;
16640;SDS011;8434;47.990;7.880;2023-04-29T09:41:23;2.97;;;2.17;;
16640;SDS011;8434;47.990;7.880;2023-04-29T09:44:09;6.30;;;2.23;;
16640;SDS011;8434;47.990;7.880;2023-04-29T09:46:55;3.23;;;2.03;;
16640;SDS011;8434;47.990;7.880;2023-04-29T09:49:42;2.60;;;1.87;;
16640;SDS011;8434;47.990;7.880;2023-04-29T09:52:28;2.47;;;2.00;;
16640;SDS011;8434;47.990;7.880;2023-04-29T09:55:24;2.40;;;2.20;;
16640;SDS011;8434;47.990;7.880;2023-04-29T09:58:12;2.30;;;2.10;;
16640;SDS011;8434;47.990;7.880;2023-04-29T10:01:11;2.60;;;1.97;;
16640;SDS011;8434;47.990;7.880;2023-04-29T10:03:57;2.97;;;2.33;;
16640;SDS011;8434;47.990;7.880;2023-04-29T10:06:47;1.90;;;1.70;;
16640;SDS011;8434;47.990;7.880;2023-04-29T10:09:32;1.73;;;1.60;;
16640;SDS011;8434;47.990;7.880;2023-04-29T10:12:18;3.10;;;1.80;;
16640;SDS011;8434;47.990;7.880;2023-04-29T10:15:05;3.17;;;1.50;;
16640;SDS011;8434;47.990;7.880;2023-04-29T10:17:54;2.05;;;1.85;;
16640;SDS011;8434;47.990;7.880;2023-04-29T10:20:44;2.28;;;1.35;;
16640;SDS011;8434;47.990;7.880;2023-04-29T10:23:31;1.95;;;1.75;;
16640;SDS011;8434;47.990;7.880;2023-04-29T10:26:17;2.47;;;1.80;;
16640;SDS011;8434;47.990;7.880;2023-04-29T10:29:04;1.60;;;1.50;;
16640;SDS011;8434;47.990;7.880;2023-04-29T10:31:49;2.28;;;1.48;;
16640;SDS011;8434;47.990;7.880;2023-04-29T10:34:36;3.67;;;2.13;;
16640;SDS011;8434;47.990;7.880;2023-04-29T10:37:21;2.03;;;1.92;;
16640;SDS011;8434;47.990;7.880;2023-04-29T10:40:11;2.20;;;1.75;;
16640;SDS011;8434;47.990;7.880;2023-04-29T10:43:01;1.75;;;1.45;;
16640;SDS011;8434;47.990;7.880;2023-04-29T10:45:47;2.97;;;1.95;;
16640;SDS011;8434;47.990;7.880;2023-04-29T10:48:33;2.47;;;1.67;;
16640;SDS011;8434;47.990;7.880;2023-04-29T10:51:29;1.65;;;1.40;;
16640;SDS011;8434;47.990;7.880;2023-04-29T10:54:18;3.40;;;1.70;;
16640;SDS011;8434;47.990;7.880;2023-04-29T10:57:10;1.90;;;1.80;;
16640;SDS011;8434;47.990;7.880;2023-04-29T11:00:04;3.78;;;1.90;;
16640;SDS011;8434;47.990;7.880;2023-04-29T11:02:50;2.17;;;1.40;;
16640;SDS011;8434;47.990;7.880;2023-04-29T11:05:35;3.30;;;1.73;;
16640;SDS011;8434;47.990;7.880;2023-04-29T11:08:22;2.00;;;1.80;;
16640;SDS011;8434;47.990;7.880;2023-04-29T11:11:09;4.53;;;1.52;;
16640;SDS011;8434;47.990;7.880;2023-04-29T11:13:58;1.77;;;1.67;;
16640;SDS011;8434;47.990;7.880;2023-04-29T11:16:47;2.00;;;1.80;;
16640;SDS011;8434;47.990;7.880;2023-04-29T11:19:33;3.95;;;1.80;;
16640;SDS011;8434;47.990;7.880;2023-04-29T11:22:25;2.00;;;1.90;;
16640;SDS011;8434;47.990;7.880;2023-04-29T11:25:11;3.10;;;2.10;;
16640;SDS011;8434;47.990;7.880;2023-04-29T11:27:56;4.13;;;2.40;;
16640;SDS011;8434;47.990;7.880;2023-04-29T11:30:43;2.30;;;2.10;;
16640;SDS011;8434;47.990;7.880;2023-04-29T11:33:30;6.33;;;2.30;;
16640;SDS011;8434;47.990;7.880;2023-04-29T11:36:16;3.13;;;2.70;;
16640;SDS011;8434;47.990;7.880;2023-04-29T11:39:01;3.03;;;1.93;;
16640;SDS011;8434;47.990;7.880;2023-04-29T11:41:48;3.33;;;2.30;;
16640;SDS011;8434;47.990;7.880;2023-04-29T11:44:33;2.47;;;2.27;;
16640;SDS011;8434;47.990;7.880;2023-04-29T11:47:21;3.03;;;2.30;;
16640;SDS011;8434;47.990;7.880;2023-04-29T11:50:10;1.87;;;1.77;;
16640;SDS011;8434;47.990;7.880;2023-04-29T11:52:55;3.23;;;2.10;;
16640;SDS011;8434;47.990;7.880;2023-04-29T11:55:41;2.83;;;2.40;;
16640;SDS011;8434;47.990;7.880;2023-04-29T11:58:27;4.30;;;2.60;;
16640;SDS011;8434;47.990;7.880;2023-04-29T12:01:12;3.63;;;2.60;;
16640;SDS011;8434;47.990;7.880;2023-04-29T12:03:59;3.83;;;2.53;;
16640;SDS011;8434;47.990;7.880;2023-04-29T12:06:45;4.50;;;2.10;;
16640;SDS011;8434;47.990;7.880;2023-04-29T12:09:40;3.77;;;2.50;;
16640;SDS011;8434;47.990;7.880;2023-04-29T12:12:26;2.40;;;2.20;;
16640;SDS011;8434;47.990;7.880;2023-04-29T12:15:14;3.60;;;2.30;;
16640;SDS011;8434;47.990;7.880;2023-04-29T12:18:00;5.00;;;2.10;;
16640;SDS011;8434;47.990;7.880;2023-04-29T12:20:47;2.97;;;2.13;;
16640;SDS011;8434;47.990;7.880;2023-04-29T12:23:34;3.90;;;2.00;;
16640;SDS011;8434;47.990;7.880;2023-04-29T12:26:20;1.60;;;1.50;;
16640;SDS011;8434;47.990;7.880;2023-04-29T12:29:05;1.73;;;1.63;;
16640;SDS011;8434;47.990;7.880;2023-04-29T12:31:54;2.35;;;1.90;;
16640;SDS011;8434;47.990;7.880;2023-04-29T12:34:40;3.05;;;2.00;;
16640;SDS011;8434;47.990;7.880;2023-04-29T12:37:27;2.05;;;1.85;;
16640;SDS011;8434;47.990;7.880;2023-04-29T12:40:12;1.50;;;1.40;;
16640;SDS011;8434;47.990;7.880;2023-04-29T12:43:05;1.95;;;1.40;;
16640;SDS011;8434;47.990;7.880;2023-04-29T12:45:51;2.28;;;1.88;;
16640;SDS011;8434;47.990;7.880;2023-04-29T12:48:39;2.28;;;1.65;;
16640;SDS011;8434;47.990;7.880;2023-04-29T12:51:26;1.50;;;1.40;;
16640;SDS011;8434;47.990;7.880;2023-04-29T12:54:13;2.10;;;1.58;;
16640;SDS011;8434;47.990;7.880;2023-04-29T12:56:58;1.95;;;1.83;;
16640;SDS011;8434;47.990;7.880;2023-04-29T12:59:43;1.52;;;1.42;;
16640;SDS011;8434;47.990;7.880;2023-04-29T13:02:29;2.60;;;1.48;;
16640;SDS011;8434;47.990;7.880;2023-04-29T13:05:14;4.05;;;1.70;;
16640;SDS011;8434;47.990;7.880;2023-04-29T13:08:00;2.13;;;1.63;;
16640;SDS011;8434;47.990;7.880;2023-04-29T13:10:47;2.90;;;1.80;;
16640;SDS011;8434;47.990;7.880;2023-04-29T13:13:32;1.90;;;1.70;;
16640;SDS011;8434;47.990;7.880;2023-04-29T13:16:18;2.33;;;1.70;;
16640;SDS011;8434;47.990;7.880;2023-04-29T13:19:03;3.23;;;2.00;;
16640;SDS011;8434;47.990;7.880;2023-04-29T13:21:50;1.77;;;1.43;;
16640;SDS011;8434;47.990;7.880;2023-04-29T13:24:35;1.65;;;1.55;;
16640;SDS011;8434;47.990;7.880;2023-04-29T13:27:22;2.17;;;1.70;;
16640;SDS011;8434;47.990;7.880;2023-04-29T13:30:07;2.90;;;1.53;;
16640;SDS011;8434;47.990;7.880;2023-04-29T13:32:53;2.07;;;1.80;;
16640;SDS011;8434;47.990;7.880;2023-04-29T13:35:38;2.13;;;1.70;;
16640;SDS011;8434;47.990;7.880;2023-04-29T13:38:24;4.03;;;2.13;;
16640;SDS011;8434;47.990;7.880;2023-04-29T13:41:10;4.33;;;2.10;;
16640;SDS011;8434;47.990;7.880;2023-04-29T13:43:57;2.93;;;2.30;;
16640;SDS011;8434;47.990;7.880;2023-04-29T13:46:42;3.47;;;2.50;;
16640;SDS011;8434;47.990;7.880;2023-04-29T13:49:29;2.10;;;1.90;;
16640;SDS011;8434;47.990;7.880;2023-04-29T13:52:14;3.30;;;2.20;;
16640;SDS011;8434;47.990;7.880;2023-04-29T13:55:00;3.87;;;2.67;;
16640;SDS011;8434;47.990;7.880;2023-04-29T13:57:45;2.73;;;2.10;;
16640;SDS011;8434;47.990;7.880;2023-04-29T14:00:32;2.40;;;2.20;;
16640;SDS011;8434;47.990;7.880;2023-04-29T14:03:18;2.77;;;2.10;;
16640;SDS011;8434;47.990;7.880;2023-04-29T14:06:03;3.17;;;2.40;;
16640;SDS011;8434;47.990;7.880;2023-04-29T14:08:50;2.43;;;2.23;;
16640;SDS011;8434;47.990;7.880;2023-04-29T14:11:35;2.37;;;2.17;;
16640;SDS011;8434;47.990;7.880;2023-04-29T14:14:21;4.33;;;2.10;;
16640;SDS011;8434;47.990;7.880;2023-04-29T14:17:07;3.13;;;2.13;;
16640;SDS011;8434;47.990;7.880;2023-04-29T14:19:53;2.60;;;2.33;;
16640;SDS011;8434;47.990;7.880;2023-04-29T14:22:39;2.70;;;2.27;;
16640;SDS011;8434;47.990;7.880;2023-04-29T14:25:24;4.27;;;2.30;;
16640;SDS011;8434;47.990;7.880;2023-04-29T14:28:10;2.63;;;2.40;;
16640;SDS011;8434;47.990;7.880;2023-04-29T14:30:55;6.10;;;2.40;;
16640;SDS011;8434;47.990;7.880;2023-04-29T14:33:42;3.40;;;2.33;;
16640;SDS011;8434;47.990;7.880;2023-04-29T14:36:28;3.03;;;2.10;;
16640;SDS011;8434;47.990;7.880;2023-04-29T14:39:15;2.67;;;2.23;;
16640;SDS011;8434;47.990;7.880;2023-04-29T14:42:01;3.93;;;2.27;;
16640;SDS011;8434;47.990;7.880;2023-04-29T14:44:46;4.33;;;2.13;;
16640;SDS011;8434;47.990;7.880;2023-04-29T14:47:32;2.33;;;2.13;;
16640;SDS011;8434;47.990;7.880;2023-04-29T14:50:19;2.30;;;2.07;;
16640;SDS011;8434;47.990;7.880;2023-04-29T14:53:06;1.93;;;1.83;;
16640;SDS011;8434;47.990;7.880;2023-04-29T14:55:52;2.30;;;2.10;;
16640;SDS011;8434;47.990;7.880;2023-04-29T14:58:38;2.20;;;2.00;;
16640;SDS011;8434;47.990;7.880;2023-04-29T15:01:23;2.50;;;2.30;;
16640;SDS011;8434;47.990;7.880;2023-04-29T15:04:10;3.77;;;2.50;;
16640;SDS011;8434;47.990;7.880;2023-04-29T15:06:57;3.00;;;2.37;;
16640;SDS011;8434;47.990;7.880;2023-04-29T15:09:42;3.07;;;2.70;;
16640;SDS011;8434;47.990;7.880;2023-04-29T15:12:28;2.97;;;2.20;;
16640;SDS011;8434;47.990;7.880;2023-04-29T15:15:14;3.43;;;2.50;;
16640;SDS011;8434;47.990;7.880;2023-04-29T15:17:59;3.27;;;2.50;;
16640;SDS011;8434;47.990;7.880;2023-04-29T15:20:45;2.50;;;2.30;;
16640;SDS011;8434;47.990;7.880;2023-04-29T15:23:32;2.90;;;2.33;;
16640;SDS011;8434;47.990;7.880;2023-04-29T15:26:17;2.57;;;2.30;;
16640;SDS011;8434;47.990;7.880;2023-04-29T15:29:02;2.67;;;2.47;;
16640;SDS011;8434;47.990;7.880;2023-04-29T15:31:48;3.77;;;3.43;;
16640;SDS011;8434;47.990;7.880;2023-04-29T15:34:34;3.53;;;2.67;;
16640;SDS011;8434;47.990;7.880;2023-04-29T15:37:20;4.20;;;2.87;;
16640;SDS011;8434;47.990;7.880;2023-04-29T15:40:08;3.77;;;2.80;;
16640;SDS011;8434;47.990;7.880;2023-04-29T15:42:53;3.90;;;3.07;;
16640;SDS011;8434;47.990;7.880;2023-04-29T15:45:38;4.87;;;3.00;;
16640;SDS011;8434;47.990;7.880;2023-04-29T15:48:25;3.20;;;2.90;;
16640;SDS011;8434;47.990;7.880;2023-04-29T15:51:10;3.00;;;2.70;;
16640;SDS011;8434;47.990;7.880;2023-04-29T15:53:58;3.50;;;3.20;;
16640;SDS011;8434;47.990;7.880;2023-04-29T15:56:45;4.70;;;3.70;;
16640;SDS011;8434;47.990;7.880;2023-04-29T15:59:31;4.77;;;3.43;;
16640;SDS011;8434;47.990;7.880;2023-04-29T16:02:16;4.87;;;3.10;;
16640;SDS011;8434;47.990;7.880;2023-04-29T16:05:03;3.63;;;3.33;;
16640;SDS011;8434;47.990;7.880;2023-04-29T16:07:49;4.57;;;3.53;;
16640;SDS011;8434;47.990;7.880;2023-04-29T16:10:34;3.20;;;2.90;;
16640;SDS011;8434;47.990;7.880;2023-04-29T16:13:21;4.13;;;3.37;;
16640;SDS011;8434;47.990;7.880;2023-04-29T16:16:06;4.30;;;3.60;;
16640;SDS011;8434;47.990;7.880;2023-04-29T16:18:52;4.07;;;3.63;;
16640;SDS011;8434;47.990;7.880;2023-04-29T16:21:37;3.63;;;3.20;;
16640;SDS011;8434;47.990;7.880;2023-04-29T16:24:23;5.03;;;3.53;;
16640;SDS011;8434;47.990;7.880;2023-04-29T16:27:08;3.23;;;2.93;;
16640;SDS011;8434;47.990;7.880;2023-04-29T16:29:55;4.07;;;3.20;;
16640;SDS011;8434;47.990;7.880;2023-04-29T16:32:40;6.37;;;4.60;;
16640;SDS011;8434;47.990;7.880;2023-04-29T16:35:27;4.00;;;3.60;;
16640;SDS011;8434;47.990;7.880;2023-04-29T16:38:13;3.63;;;3.10;;
16640;SDS011;8434;47.990;7.880;2023-04-29T16:40:59;4.07;;;3.33;;
16640;SDS011;8434;47.990;7.880;2023-04-29T16:43:44;4.17;;;3.07;;
16640;SDS011;8434;47.990;7.880;2023-04-29T16:46:31;4.17;;;3.77;;
16640;SDS011;8434;47.990;7.880;2023-04-29T16:49:20;6.43;;;3.70;;
16640;SDS011;8434;47.990;7.880;2023-04-29T16:52:07;3.50;;;3.20;;
16640;SDS011;8434;47.990;7.880;2023-04-29T16:54:52;3.93;;;3.57;;
16640;SDS011;8434;47.990;7.880;2023-04-29T16:57:39;4.00;;;3.60;;
16640;SDS011;8434;47.990;7.880;2023-04-29T17:00:24;4.50;;;3.80;;
16640;SDS011;8434;47.990;7.880;2023-04-29T17:03:11;4.80;;;3.60;;